Terminal Aerodrome Forecast
Issued by NWS Jackson, MS

Home | Current Version | Previous Version | Text Only | Print | Product List | Glossary On
Versions: 1 2 3 4 5 6 7 8 9 10 11 12 13
487
FTUS44 KMEG 221129
TAFTUP
TAF
KTUP 221129Z 2212/2312 02004KT P6SM SCT100
     FM221600 09005KT P6SM SCT045 OVC100
     FM230100 00000KT P6SM SKC=

USA.gov is the U.S. government's official web portal to all federal, state and local government web resources and services.